sensor_id;sensor_type;location;lat;lon;timestamp;temperature;humidity
84971;DHT22;75278;51.926;4.562;2024-01-30T00:00:38;8.6;95
84971;DHT22;75278;51.926;4.562;2024-01-30T00:02:42;8.6;95
84971;DHT22;75278;51.926;4.562;2024-01-30T00:04:38;8.6;94
84971;DHT22;75278;51.926;4.562;2024-01-30T00:06:38;8.6;94
84971;DHT22;75278;51.926;4.562;2024-01-30T00:08:38;8.7;94
84971;DHT22;75278;51.926;4.562;2024-01-30T00:10:38;8.7;94
84971;DHT22;75278;51.926;4.562;2024-01-30T00:12:38;8.7;94
84971;DHT22;75278;51.926;4.562;2024-01-30T00:14:40;8.7;94
84971;DHT22;75278;51.926;4.562;2024-01-30T00:16:38;8.7;94
84971;DHT22;75278;51.926;4.562;2024-01-30T00:18:38;8.8;94
84971;DHT22;75278;51.926;4.562;2024-01-30T00:20:38;8.8;93
84971;DHT22;75278;51.926;4.562;2024-01-30T00:22:38;8.8;93
84971;DHT22;75278;51.926;4.562;2024-01-30T00:24:38;8.9;93
84971;DHT22;75278;51.926;4.562;2024-01-30T00:26:38;9.0;93
84971;DHT22;75278;51.926;4.562;2024-01-30T00:28:38;9.0;93
84971;DHT22;75278;51.926;4.562;2024-01-30T00:30:38;9.1;92
84971;DHT22;75278;51.926;4.562;2024-01-30T00:32:38;9.0;92
84971;DHT22;75278;51.926;4.562;2024-01-30T00:34:38;9.0;92
84971;DHT22;75278;51.926;4.562;2024-01-30T00:36:38;9.0;92
84971;DHT22;75278;51.926;4.562;2024-01-30T00:38:38;9.1;92
84971;DHT22;75278;51.926;4.562;2024-01-30T00:40:38;9.1;92
84971;DHT22;75278;51.926;4.562;2024-01-30T00:42:38;9.1;92
84971;DHT22;75278;51.926;4.562;2024-01-30T00:44:38;9.0;92
84971;DHT22;75278;51.926;4.562;2024-01-30T00:46:39;8.9;92
84971;DHT22;75278;51.926;4.562;2024-01-30T00:48:38;8.9;92
84971;DHT22;75278;51.926;4.562;2024-01-30T00:50:38;8.9;92
84971;DHT22;75278;51.926;4.562;2024-01-30T00:52:38;8.9;92
84971;DHT22;75278;51.926;4.562;2024-01-30T00:54:41;8.8;92
84971;DHT22;75278;51.926;4.562;2024-01-30T00:56:38;8.8;92
84971;DHT22;75278;51.926;4.562;2024-01-30T00:58:38;8.8;92
84971;DHT22;75278;51.926;4.562;2024-01-30T01:00:38;8.7;92
84971;DHT22;75278;51.926;4.562;2024-01-30T01:02:38;8.7;92
84971;DHT22;75278;51.926;4.562;2024-01-30T01:04:38;8.7;92
84971;DHT22;75278;51.926;4.562;2024-01-30T01:06:38;8.6;92
84971;DHT22;75278;51.926;4.562;2024-01-30T01:08:38;8.6;93
84971;DHT22;75278;51.926;4.562;2024-01-30T01:09:10;8.6;93
84971;DHT22;75278;51.926;4.562;2024-01-30T01:10:25;8.6;93
84971;DHT22;75278;51.926;4.562;2024-01-30T01:12:25;8.6;93
84971;DHT22;75278;51.926;4.562;2024-01-30T01:14:25;8.5;93
84971;DHT22;75278;51.926;4.562;2024-01-30T01:16:25;8.5;93
84971;DHT22;75278;51.926;4.562;2024-01-30T01:18:25;8.5;93
84971;DHT22;75278;51.926;4.562;2024-01-30T01:20:28;8.5;93
84971;DHT22;75278;51.926;4.562;2024-01-30T01:22:25;8.5;93
84971;DHT22;75278;51.926;4.562;2024-01-30T01:24:25;8.5;93
84971;DHT22;75278;51.926;4.562;2024-01-30T01:26:25;8.5;93
84971;DHT22;75278;51.926;4.562;2024-01-30T01:28:25;8.5;93
84971;DHT22;75278;51.926;4.562;2024-01-30T01:30:25;8.5;93
84971;DHT22;75278;51.926;4.562;2024-01-30T01:32:28;8.5;93
84971;DHT22;75278;51.926;4.562;2024-01-30T01:34:25;8.4;93
84971;DHT22;75278;51.926;4.562;2024-01-30T01:36:25;8.4;93
84971;DHT22;75278;51.926;4.562;2024-01-30T01:38:25;8.4;93
84971;DHT22;75278;51.926;4.562;2024-01-30T01:40:25;8.4;94
84971;DHT22;75278;51.926;4.562;2024-01-30T01:42:25;8.4;94
84971;DHT22;75278;51.926;4.562;2024-01-30T01:44:25;8.4;94
84971;DHT22;75278;51.926;4.562;2024-01-30T01:46:26;8.5;94
84971;DHT22;75278;51.926;4.562;2024-01-30T01:48:28;8.5;94
84971;DHT22;75278;51.926;4.562;2024-01-30T01:50:25;8.5;94
84971;DHT22;75278;51.926;4.562;2024-01-30T01:52:25;8.6;94
84971;DHT22;75278;51.926;4.562;2024-01-30T01:54:25;8.6;94
84971;DHT22;75278;51.926;4.562;2024-01-30T01:56:25;8.7;94
84971;DHT22;75278;51.926;4.562;2024-01-30T01:58:25;8.7;94
84971;DHT22;75278;51.926;4.562;2024-01-30T02:00:25;8.8;93
84971;DHT22;75278;51.926;4.562;2024-01-30T02:02:25;8.8;93
84971;DHT22;75278;51.926;4.562;2024-01-30T02:04:25;8.8;93
84971;DHT22;75278;51.926;4.562;2024-01-30T02:06:25;8.8;93
84971;DHT22;75278;51.926;4.562;2024-01-30T02:08:25;8.8;93
84971;DHT22;75278;51.926;4.562;2024-01-30T02:10:25;8.8;93
84971;DHT22;75278;51.926;4.562;2024-01-30T02:12:25;8.8;93
84971;DHT22;75278;51.926;4.562;2024-01-30T02:14:25;8.8;93
84971;DHT22;75278;51.926;4.562;2024-01-30T02:16:25;8.8;93
84971;DHT22;75278;51.926;4.562;2024-01-30T02:18:25;8.8;93
84971;DHT22;75278;51.926;4.562;2024-01-30T02:20:28;8.8;93
84971;DHT22;75278;51.926;4.562;2024-01-30T02:22:25;8.8;93
84971;DHT22;75278;51.926;4.562;2024-01-30T02:24:25;8.8;93
84971;DHT22;75278;51.926;4.562;2024-01-30T02:26:25;8.9;93
84971;DHT22;75278;51.926;4.562;2024-01-30T02:28:25;8.9;93
84971;DHT22;75278;51.926;4.562;2024-01-30T02:30:25;8.9;93
84971;DHT22;75278;51.926;4.562;2024-01-30T02:32:25;8.9;93
84971;DHT22;75278;51.926;4.562;2024-01-30T02:34:25;8.9;93
84971;DHT22;75278;51.926;4.562;2024-01-30T02:36:25;8.9;93
84971;DHT22;75278;51.926;4.562;2024-01-30T02:38:28;8.9;93
84971;DHT22;75278;51.926;4.562;2024-01-30T02:40:25;8.9;93
84971;DHT22;75278;51.926;4.562;2024-01-30T02:42:25;9.0;93
84971;DHT22;75278;51.926;4.562;2024-01-30T02:44:25;9.0;93
84971;DHT22;75278;51.926;4.562;2024-01-30T02:46:25;9.0;93
84971;DHT22;75278;51.926;4.562;2024-01-30T02:48:25;9.0;93
84971;DHT22;75278;51.926;4.562;2024-01-30T02:50:25;9.0;93
84971;DHT22;75278;51.926;4.562;2024-01-30T02:52:28;9.0;93
84971;DHT22;75278;51.926;4.562;2024-01-30T02:54:25;9.0;93
84971;DHT22;75278;51.926;4.562;2024-01-30T02:58:25;9.0;93
84971;DHT22;75278;51.926;4.562;2024-01-30T03:00:25;9.1;93
84971;DHT22;75278;51.926;4.562;2024-01-30T03:02:25;9.1;93
84971;DHT22;75278;51.926;4.562;2024-01-30T03:04:25;9.1;93
84971;DHT22;75278;51.926;4.562;2024-01-30T03:06:25;9.1;92
84971;DHT22;75278;51.926;4.562;2024-01-30T03:08:25;9.1;92
84971;DHT22;75278;51.926;4.562;2024-01-30T03:10:25;9.0;93
84971;DHT22;75278;51.926;4.562;2024-01-30T03:12:25;9.0;93
84971;DHT22;75278;51.926;4.562;2024-01-30T03:14:25;9.0;93
84971;DHT22;75278;51.926;4.562;2024-01-30T03:16:25;9.1;93
84971;DHT22;75278;51.926;4.562;2024-01-30T03:18:25;9.1;92
84971;DHT22;75278;51.926;4.562;2024-01-30T03:20:25;9.1;92
84971;DHT22;75278;51.926;4.562;2024-01-30T03:22:25;9.1;92
84971;DHT22;75278;51.926;4.562;2024-01-30T03:24:28;9.2;92
84971;DHT22;75278;51.926;4.562;2024-01-30T03:26:25;9.1;92
84971;DHT22;75278;51.926;4.562;2024-01-30T03:28:25;9.1;92
84971;DHT22;75278;51.926;4.562;2024-01-30T03:30:25;9.1;92
84971;DHT22;75278;51.926;4.562;2024-01-30T03:32:25;9.1;92
84971;DHT22;75278;51.926;4.562;2024-01-30T03:34:25;9.1;93
84971;DHT22;75278;51.926;4.562;2024-01-30T03:36:28;9.2;93
84971;DHT22;75278;51.926;4.562;2024-01-30T03:38:25;9.2;92
84971;DHT22;75278;51.926;4.562;2024-01-30T03:40:25;9.3;92
84971;DHT22;75278;51.926;4.562;2024-01-30T03:42:25;9.3;92
84971;DHT22;75278;51.926;4.562;2024-01-30T03:44:25;9.4;92
84971;DHT22;75278;51.926;4.562;2024-01-30T03:46:25;9.4;92
84971;DHT22;75278;51.926;4.562;2024-01-30T03:48:25;9.5;91
84971;DHT22;75278;51.926;4.562;2024-01-30T03:50:25;9.5;91
84971;DHT22;75278;51.926;4.562;2024-01-30T03:52:25;9.5;91
84971;DHT22;75278;51.926;4.562;2024-01-30T03:54:25;9.6;91
84971;DHT22;75278;51.926;4.562;2024-01-30T03:56:25;9.6;91
84971;DHT22;75278;51.926;4.562;2024-01-30T03:58:28;9.6;91
84971;DHT22;75278;51.926;4.562;2024-01-30T04:00:25;9.6;91
84971;DHT22;75278;51.926;4.562;2024-01-30T04:02:25;9.6;91
84971;DHT22;75278;51.926;4.562;2024-01-30T04:04:25;9.6;91
84971;DHT22;75278;51.926;4.562;2024-01-30T04:06:25;9.6;91
84971;DHT22;75278;51.926;4.562;2024-01-30T04:08:25;9.5;91
84971;DHT22;75278;51.926;4.562;2024-01-30T04:10:25;9.6;91
84971;DHT22;75278;51.926;4.562;2024-01-30T04:12:25;9.6;91
84971;DHT22;75278;51.926;4.562;2024-01-30T04:14:28;9.5;90
84971;DHT22;75278;51.926;4.562;2024-01-30T04:16:25;9.5;91
84971;DHT22;75278;51.926;4.562;2024-01-30T04:18:25;9.5;90
84971;DHT22;75278;51.926;4.562;2024-01-30T04:20:25;9.5;91
84971;DHT22;75278;51.926;4.562;2024-01-30T04:22:25;9.5;91
84971;DHT22;75278;51.926;4.562;2024-01-30T04:24:25;9.4;91
84971;DHT22;75278;51.926;4.562;2024-01-30T04:25:01;9.4;91
84971;DHT22;75278;51.926;4.562;2024-01-30T04:25:49;9.4;91
84971;DHT22;75278;51.926;4.562;2024-01-30T04:27:49;9.3;91
84971;DHT22;75278;51.926;4.562;2024-01-30T04:29:49;9.4;92
84971;DHT22;75278;51.926;4.562;2024-01-30T04:31:49;9.4;92
84971;DHT22;75278;51.926;4.562;2024-01-30T04:33:49;9.4;92
84971;DHT22;75278;51.926;4.562;2024-01-30T04:35:49;9.4;91
84971;DHT22;75278;51.926;4.562;2024-01-30T04:37:49;9.4;91
84971;DHT22;75278;51.926;4.562;2024-01-30T04:39:49;9.4;91
84971;DHT22;75278;51.926;4.562;2024-01-30T04:43:49;9.4;91
84971;DHT22;75278;51.926;4.562;2024-01-30T04:45:49;9.4;92
84971;DHT22;75278;51.926;4.562;2024-01-30T04:47:49;9.4;91
84971;DHT22;75278;51.926;4.562;2024-01-30T04:49:51;9.5;91
84971;DHT22;75278;51.926;4.562;2024-01-30T04:51:49;9.5;91
84971;DHT22;75278;51.926;4.562;2024-01-30T04:53:49;9.4;91
84971;DHT22;75278;51.926;4.562;2024-01-30T04:55:49;9.4;91
84971;DHT22;75278;51.926;4.562;2024-01-30T04:57:49;9.3;91
84971;DHT22;75278;51.926;4.562;2024-01-30T04:59:49;9.3;92
84971;DHT22;75278;51.926;4.562;2024-01-30T05:01:49;9.3;92
84971;DHT22;75278;51.926;4.562;2024-01-30T05:03:49;9.4;92
84971;DHT22;75278;51.926;4.562;2024-01-30T05:04:45;9.4;92
84971;DHT22;75278;51.926;4.562;2024-01-30T05:06:28;9.4;92
84971;DHT22;75278;51.926;4.562;2024-01-30T05:08:28;9.4;92
84971;DHT22;75278;51.926;4.562;2024-01-30T05:10:27;9.4;92
84971;DHT22;75278;51.926;4.562;2024-01-30T05:12:27;9.4;92
84971;DHT22;75278;51.926;4.562;2024-01-30T05:14:27;9.4;92
84971;DHT22;75278;51.926;4.562;2024-01-30T05:16:27;9.5;92
84971;DHT22;75278;51.926;4.562;2024-01-30T05:18:27;9.5;91
84971;DHT22;75278;51.926;4.562;2024-01-30T05:20:27;9.5;91
84971;DHT22;75278;51.926;4.562;2024-01-30T05:22:28;9.4;91
84971;DHT22;75278;51.926;4.562;2024-01-30T05:24:28;9.5;91
84971;DHT22;75278;51.926;4.562;2024-01-30T05:26:28;9.5;91
84971;DHT22;75278;51.926;4.562;2024-01-30T05:28:28;9.5;91
84971;DHT22;75278;51.926;4.562;2024-01-30T05:30:27;9.5;91
84971;DHT22;75278;51.926;4.562;2024-01-30T05:32:27;9.5;91
84971;DHT22;75278;51.926;4.562;2024-01-30T05:34:30;9.5;91
84971;DHT22;75278;51.926;4.562;2024-01-30T05:36:31;9.5;91
84971;DHT22;75278;51.926;4.562;2024-01-30T05:38:28;9.5;91
84971;DHT22;75278;51.926;4.562;2024-01-30T05:40:27;9.5;91
84971;DHT22;75278;51.926;4.562;2024-01-30T05:42:27;9.6;91
84971;DHT22;75278;51.926;4.562;2024-01-30T05:44:27;9.6;91
84971;DHT22;75278;51.926;4.562;2024-01-30T05:46:28;9.6;91
84971;DHT22;75278;51.926;4.562;2024-01-30T05:48:27;9.6;91
84971;DHT22;75278;51.926;4.562;2024-01-30T05:50:28;9.6;91
84971;DHT22;75278;51.926;4.562;2024-01-30T05:52:28;9.7;91
84971;DHT22;75278;51.926;4.562;2024-01-30T05:54:28;9.7;91
84971;DHT22;75278;51.926;4.562;2024-01-30T05:56:31;9.7;91
84971;DHT22;75278;51.926;4.562;2024-01-30T05:58:28;9.7;91
84971;DHT22;75278;51.926;4.562;2024-01-30T06:00:27;9.7;91
84971;DHT22;75278;51.926;4.562;2024-01-30T06:02:27;9.7;91
84971;DHT22;75278;51.926;4.562;2024-01-30T06:04:31;9.7;91
84971;DHT22;75278;51.926;4.562;2024-01-30T06:06:27;9.7;91
84971;DHT22;75278;51.926;4.562;2024-01-30T06:08:28;9.7;91
84971;DHT22;75278;51.926;4.562;2024-01-30T06:10:27;9.7;91
84971;DHT22;75278;51.926;4.562;2024-01-30T06:12:28;9.7;91
84971;DHT22;75278;51.926;4.562;2024-01-30T06:14:28;9.7;91
84971;DHT22;75278;51.926;4.562;2024-01-30T06:16:28;9.8;91
84971;DHT22;75278;51.926;4.562;2024-01-30T06:18:31;9.8;91
84971;DHT22;75278;51.926;4.562;2024-01-30T06:20:27;9.8;91
84971;DHT22;75278;51.926;4.562;2024-01-30T06:22:28;9.7;91
84971;DHT22;75278;51.926;4.562;2024-01-30T06:24:28;9.8;91
84971;DHT22;75278;51.926;4.562;2024-01-30T06:26:27;9.8;91
84971;DHT22;75278;51.926;4.562;2024-01-30T06:28:28;9.7;91
84971;DHT22;75278;51.926;4.562;2024-01-30T06:30:27;9.8;91
84971;DHT22;75278;51.926;4.562;2024-01-30T06:32:31;9.7;91
84971;DHT22;75278;51.926;4.562;2024-01-30T06:34:28;9.7;91
84971;DHT22;75278;51.926;4.562;2024-01-30T06:36:28;9.7;91
84971;DHT22;75278;51.926;4.562;2024-01-30T06:38:31;9.7;91
84971;DHT22;75278;51.926;4.562;2024-01-30T06:40:28;9.7;91
84971;DHT22;75278;51.926;4.562;2024-01-30T06:42:28;9.7;91
84971;DHT22;75278;51.926;4.562;2024-01-30T06:44:28;9.7;91
84971;DHT22;75278;51.926;4.562;2024-01-30T06:48:28;9.9;91
84971;DHT22;75278;51.926;4.562;2024-01-30T06:50:28;9.9;91
84971;DHT22;75278;51.926;4.562;2024-01-30T06:52:28;9.9;91
84971;DHT22;75278;51.926;4.562;2024-01-30T06:54:28;10.0;91
84971;DHT22;75278;51.926;4.562;2024-01-30T06:56:28;10.0;90
84971;DHT22;75278;51.926;4.562;2024-01-30T06:58:28;10.0;90
84971;DHT22;75278;51.926;4.562;2024-01-30T07:00:28;10.1;90
84971;DHT22;75278;51.926;4.562;2024-01-30T07:02:28;10.1;90
84971;DHT22;75278;51.926;4.562;2024-01-30T07:04:28;10.2;90
84971;DHT22;75278;51.926;4.562;2024-01-30T07:04:38;10.2;90
84971;DHT22;75278;51.926;4.562;2024-01-30T07:06:28;10.2;90
84971;DHT22;75278;51.926;4.562;2024-01-30T07:08:28;10.2;90
84971;DHT22;75278;51.926;4.562;2024-01-30T07:10:28;10.2;90
84971;DHT22;75278;51.926;4.562;2024-01-30T07:12:28;10.1;90
84971;DHT22;75278;51.926;4.562;2024-01-30T07:14:28;10.2;90
84971;DHT22;75278;51.926;4.562;2024-01-30T07:16:28;10.2;90
84971;DHT22;75278;51.926;4.562;2024-01-30T07:18:28;10.2;90
84971;DHT22;75278;51.926;4.562;2024-01-30T07:20:28;10.3;90
84971;DHT22;75278;51.926;4.562;2024-01-30T07:22:31;10.3;90
84971;DHT22;75278;51.926;4.562;2024-01-30T07:24:28;10.3;90
84971;DHT22;75278;51.926;4.562;2024-01-30T07:26:28;10.3;90
84971;DHT22;75278;51.926;4.562;2024-01-30T07:28:28;10.3;90
84971;DHT22;75278;51.926;4.562;2024-01-30T07:30:28;10.3;90
84971;DHT22;75278;51.926;4.562;2024-01-30T07:32:31;10.4;90
84971;DHT22;75278;51.926;4.562;2024-01-30T07:34:28;10.4;90
84971;DHT22;75278;51.926;4.562;2024-01-30T07:36:28;10.5;90
84971;DHT22;75278;51.926;4.562;2024-01-30T07:38:28;10.5;90
84971;DHT22;75278;51.926;4.562;2024-01-30T07:40:28;10.5;90
84971;DHT22;75278;51.926;4.562;2024-01-30T07:42:28;10.5;90
84971;DHT22;75278;51.926;4.562;2024-01-30T07:44:31;10.6;90
84971;DHT22;75278;51.926;4.562;2024-01-30T07:46:28;10.6;90
84971;DHT22;75278;51.926;4.562;2024-01-30T07:48:28;10.7;90
84971;DHT22;75278;51.926;4.562;2024-01-30T07:50:28;10.7;90
84971;DHT22;75278;51.926;4.562;2024-01-30T07:52:28;10.8;89
84971;DHT22;75278;51.926;4.562;2024-01-30T07:54:29;10.8;89
84971;DHT22;75278;51.926;4.562;2024-01-30T07:56:28;10.9;89
84971;DHT22;75278;51.926;4.562;2024-01-30T07:58:28;10.9;89
84971;DHT22;75278;51.926;4.562;2024-01-30T08:00:28;11.0;89
84971;DHT22;75278;51.926;4.562;2024-01-30T08:02:28;11.0;89
84971;DHT22;75278;51.926;4.562;2024-01-30T08:04:28;11.0;89
84971;DHT22;75278;51.926;4.562;2024-01-30T08:06:28;11.0;89
84971;DHT22;75278;51.926;4.562;2024-01-30T08:08:28;11.1;89
84971;DHT22;75278;51.926;4.562;2024-01-30T08:10:31;11.1;88
84971;DHT22;75278;51.926;4.562;2024-01-30T08:12:28;11.1;88
84971;DHT22;75278;51.926;4.562;2024-01-30T08:14:28;11.1;88
84971;DHT22;75278;51.926;4.562;2024-01-30T08:16:28;11.1;88
84971;DHT22;75278;51.926;4.562;2024-01-30T08:18:28;11.1;88
84971;DHT22;75278;51.926;4.562;2024-01-30T08:20:28;11.2;88
84971;DHT22;75278;51.926;4.562;2024-01-30T08:22:28;11.1;88
84971;DHT22;75278;51.926;4.562;2024-01-30T08:24:28;11.2;88
84971;DHT22;75278;51.926;4.562;2024-01-30T08:26:28;11.2;88
84971;DHT22;75278;51.926;4.562;2024-01-30T08:28:28;11.2;88
84971;DHT22;75278;51.926;4.562;2024-01-30T08:30:28;11.2;88
84971;DHT22;75278;51.926;4.562;2024-01-30T08:32:28;11.2;88
84971;DHT22;75278;51.926;4.562;2024-01-30T08:34:28;11.2;88
84971;DHT22;75278;51.926;4.562;2024-01-30T08:36:28;11.2;88
84971;DHT22;75278;51.926;4.562;2024-01-30T08:38:28;11.2;88
84971;DHT22;75278;51.926;4.562;2024-01-30T08:40:28;11.2;88
84971;DHT22;75278;51.926;4.562;2024-01-30T08:42:28;11.3;88
84971;DHT22;75278;51.926;4.562;2024-01-30T08:44:28;11.3;87
84971;DHT22;75278;51.926;4.562;2024-01-30T08:46:28;11.3;87
84971;DHT22;75278;51.926;4.562;2024-01-30T08:48:28;11.3;87
84971;DHT22;75278;51.926;4.562;2024-01-30T08:50:28;11.3;87
84971;DHT22;75278;51.926;4.562;2024-01-30T08:52:28;11.3;87
84971;DHT22;75278;51.926;4.562;2024-01-30T08:54:28;11.3;87
84971;DHT22;75278;51.926;4.562;2024-01-30T08:56:31;11.3;87
84971;DHT22;75278;51.926;4.562;2024-01-30T08:58:28;11.3;87
84971;DHT22;75278;51.926;4.562;2024-01-30T09:00:28;11.3;87
84971;DHT22;75278;51.926;4.562;2024-01-30T09:02:31;11.3;87
84971;DHT22;75278;51.926;4.562;2024-01-30T09:04:28;11.3;87
84971;DHT22;75278;51.926;4.562;2024-01-30T09:04:38;11.3;87
84971;DHT22;75278;51.926;4.562;2024-01-30T09:06:28;11.3;87
84971;DHT22;75278;51.926;4.562;2024-01-30T09:08:28;11.2;87
84971;DHT22;75278;51.926;4.562;2024-01-30T09:10:28;11.2;87
84971;DHT22;75278;51.926;4.562;2024-01-30T09:12:28;11.2;87
84971;DHT22;75278;51.926;4.562;2024-01-30T09:14:28;11.3;87
84971;DHT22;75278;51.926;4.562;2024-01-30T09:16:28;11.3;87
84971;DHT22;75278;51.926;4.562;2024-01-30T09:18:28;11.3;87
84971;DHT22;75278;51.926;4.562;2024-01-30T09:20:28;11.2;87
84971;DHT22;75278;51.926;4.562;2024-01-30T09:22:31;11.2;87
84971;DHT22;75278;51.926;4.562;2024-01-30T09:24:28;11.3;87
84971;DHT22;75278;51.926;4.562;2024-01-30T09:26:28;11.3;87
84971;DHT22;75278;51.926;4.562;2024-01-30T09:28:28;11.4;87
84971;DHT22;75278;51.926;4.562;2024-01-30T09:30:28;11.3;86
84971;DHT22;75278;51.926;4.562;2024-01-30T09:32:28;11.3;86
84971;DHT22;75278;51.926;4.562;2024-01-30T09:34:28;11.4;86
84971;DHT22;75278;51.926;4.562;2024-01-30T09:36:28;11.4;86
84971;DHT22;75278;51.926;4.562;2024-01-30T09:38:28;11.5;86
84971;DHT22;75278;51.926;4.562;2024-01-30T09:40:28;11.5;86
84971;DHT22;75278;51.926;4.562;2024-01-30T09:42:28;11.5;86
84971;DHT22;75278;51.926;4.562;2024-01-30T09:44:28;11.5;86
84971;DHT22;75278;51.926;4.562;2024-01-30T09:46:28;11.4;86
84971;DHT22;75278;51.926;4.562;2024-01-30T09:48:28;11.4;86
84971;DHT22;75278;51.926;4.562;2024-01-30T09:50:28;11.4;86
84971;DHT22;75278;51.926;4.562;2024-01-30T09:52:28;11.3;87
84971;DHT22;75278;51.926;4.562;2024-01-30T09:54:28;11.3;87
84971;DHT22;75278;51.926;4.562;2024-01-30T09:56:28;11.3;87
84971;DHT22;75278;51.926;4.562;2024-01-30T09:58:28;11.3;87
84971;DHT22;75278;51.926;4.562;2024-01-30T10:00:28;11.3;86
84971;DHT22;75278;51.926;4.562;2024-01-30T10:02:28;11.3;87
84971;DHT22;75278;51.926;4.562;2024-01-30T10:04:28;11.4;86
84971;DHT22;75278;51.926;4.562;2024-01-30T10:06:28;11.4;87
84971;DHT22;75278;51.926;4.562;2024-01-30T10:08:28;11.5;86
84971;DHT22;75278;51.926;4.562;2024-01-30T10:10:31;11.5;85
84971;DHT22;75278;51.926;4.562;2024-01-30T10:12:29;11.5;84
84971;DHT22;75278;51.926;4.562;2024-01-30T10:14:28;11.5;84
84971;DHT22;75278;51.926;4.562;2024-01-30T10:16:28;11.4;84
84971;DHT22;75278;51.926;4.562;2024-01-30T10:18:28;11.4;84
84971;DHT22;75278;51.926;4.562;2024-01-30T10:20:28;11.3;84
84971;DHT22;75278;51.926;4.562;2024-01-30T10:22:28;11.2;84
84971;DHT22;75278;51.926;4.562;2024-01-30T10:24:28;11.2;84
84971;DHT22;75278;51.926;4.562;2024-01-30T10:26:28;11.1;84
84971;DHT22;75278;51.926;4.562;2024-01-30T10:28:28;11.0;84
84971;DHT22;75278;51.926;4.562;2024-01-30T10:30:28;11.0;83
84971;DHT22;75278;51.926;4.562;2024-01-30T10:32:28;11.0;82
84971;DHT22;75278;51.926;4.562;2024-01-30T10:34:28;11.0;82
84971;DHT22;75278;51.926;4.562;2024-01-30T10:36:28;11.0;82
84971;DHT22;75278;51.926;4.562;2024-01-30T10:38:28;10.9;82
84971;DHT22;75278;51.926;4.562;2024-01-30T10:40:28;10.9;82
84971;DHT22;75278;51.926;4.562;2024-01-30T10:42:28;10.9;82
84971;DHT22;75278;51.926;4.562;2024-01-30T10:44:28;10.9;81
84971;DHT22;75278;51.926;4.562;2024-01-30T10:46:29;10.8;81
84971;DHT22;75278;51.926;4.562;2024-01-30T10:48:29;10.8;81
84971;DHT22;75278;51.926;4.562;2024-01-30T10:50:28;10.8;81
84971;DHT22;75278;51.926;4.562;2024-01-30T10:52:28;10.8;81
84971;DHT22;75278;51.926;4.562;2024-01-30T10:54:28;10.7;81
84971;DHT22;75278;51.926;4.562;2024-01-30T10:56:31;10.7;81
84971;DHT22;75278;51.926;4.562;2024-01-30T10:58:28;10.7;81
84971;DHT22;75278;51.926;4.562;2024-01-30T11:00:28;10.6;81
84971;DHT22;75278;51.926;4.562;2024-01-30T11:02:28;10.6;81
84971;DHT22;75278;51.926;4.562;2024-01-30T11:04:35;10.5;81
84971;DHT22;75278;51.926;4.562;2024-01-30T11:04:38;10.6;81
84971;DHT22;75278;51.926;4.562;2024-01-30T11:06:28;10.6;82
84971;DHT22;75278;51.926;4.562;2024-01-30T11:08:28;10.5;82
84971;DHT22;75278;51.926;4.562;2024-01-30T11:10:28;10.5;82
84971;DHT22;75278;51.926;4.562;2024-01-30T11:12:28;10.4;82
84971;DHT22;75278;51.926;4.562;2024-01-30T11:14:29;10.2;83
84971;DHT22;75278;51.926;4.562;2024-01-30T11:16:30;10.1;84
84971;DHT22;75278;51.926;4.562;2024-01-30T11:18:28;9.9;85
84971;DHT22;75278;51.926;4.562;2024-01-30T11:20:31;9.8;85
84971;DHT22;75278;51.926;4.562;2024-01-30T11:22:30;9.8;86
84971;DHT22;75278;51.926;4.562;2024-01-30T11:24:31;9.8;86
84971;DHT22;75278;51.926;4.562;2024-01-30T11:26:28;9.7;85
84971;DHT22;75278;51.926;4.562;2024-01-30T11:28:31;9.7;85
84971;DHT22;75278;51.926;4.562;2024-01-30T11:30:28;9.7;85
84971;DHT22;75278;51.926;4.562;2024-01-30T11:32:31;9.7;86
84971;DHT22;75278;51.926;4.562;2024-01-30T11:34:28;9.7;86
84971;DHT22;75278;51.926;4.562;2024-01-30T11:36:28;9.8;86
84971;DHT22;75278;51.926;4.562;2024-01-30T11:38:28;9.8;84
84971;DHT22;75278;51.926;4.562;2024-01-30T11:40:28;9.9;84
84971;DHT22;75278;51.926;4.562;2024-01-30T11:42:28;9.9;83
84971;DHT22;75278;51.926;4.562;2024-01-30T11:44:28;9.9;83
84971;DHT22;75278;51.926;4.562;2024-01-30T11:46:28;9.9;82
84971;DHT22;75278;51.926;4.562;2024-01-30T11:48:28;9.9;81
84971;DHT22;75278;51.926;4.562;2024-01-30T11:50:32;9.9;81
84971;DHT22;75278;51.926;4.562;2024-01-30T11:52:28;9.9;80
84971;DHT22;75278;51.926;4.562;2024-01-30T11:54:28;9.9;81
84971;DHT22;75278;51.926;4.562;2024-01-30T11:56:28;9.9;81
84971;DHT22;75278;51.926;4.562;2024-01-30T11:58:28;9.8;81
84971;DHT22;75278;51.926;4.562;2024-01-30T12:00:28;9.9;81
84971;DHT22;75278;51.926;4.562;2024-01-30T12:02:28;9.9;81
84971;DHT22;75278;51.926;4.562;2024-01-30T12:04:28;9.9;81
84971;DHT22;75278;51.926;4.562;2024-01-30T12:06:28;9.9;81
84971;DHT22;75278;51.926;4.562;2024-01-30T12:07:43;9.9;81
84971;DHT22;75278;51.926;4.562;2024-01-30T12:08:54;9.9;81
84971;DHT22;75278;51.926;4.562;2024-01-30T12:10:12;9.9;81
84971;DHT22;75278;51.926;4.562;2024-01-30T12:11:43;9.9;81
84971;DHT22;75278;51.926;4.562;2024-01-30T12:13:40;9.9;82
84971;DHT22;75278;51.926;4.562;2024-01-30T12:15:40;9.9;82
84971;DHT22;75278;51.926;4.562;2024-01-30T12:17:40;9.9;82
84971;DHT22;75278;51.926;4.562;2024-01-30T12:19:40;9.8;83
84971;DHT22;75278;51.926;4.562;2024-01-30T12:21:40;9.8;83
84971;DHT22;75278;51.926;4.562;2024-01-30T12:23:40;9.8;83
84971;DHT22;75278;51.926;4.562;2024-01-30T12:25:40;9.8;84
84971;DHT22;75278;51.926;4.562;2024-01-30T12:27:41;9.8;84
84971;DHT22;75278;51.926;4.562;2024-01-30T12:29:41;9.8;84
84971;DHT22;75278;51.926;4.562;2024-01-30T12:31:41;9.8;84
84971;DHT22;75278;51.926;4.562;2024-01-30T12:33:40;9.8;84
84971;DHT22;75278;51.926;4.562;2024-01-30T12:35:45;9.8;84
84971;DHT22;75278;51.926;4.562;2024-01-30T12:37:40;9.8;85
84971;DHT22;75278;51.926;4.562;2024-01-30T12:39:40;9.8;85
84971;DHT22;75278;51.926;4.562;2024-01-30T12:41:40;9.7;86
84971;DHT22;75278;51.926;4.562;2024-01-30T12:43:43;9.6;86
84971;DHT22;75278;51.926;4.562;2024-01-30T12:45:41;9.4;88
84971;DHT22;75278;51.926;4.562;2024-01-30T12:47:40;9.3;89
84971;DHT22;75278;51.926;4.562;2024-01-30T12:49:40;9.2;90
84971;DHT22;75278;51.926;4.562;2024-01-30T12:51:43;9.2;90
84971;DHT22;75278;51.926;4.562;2024-01-30T12:53:40;9.1;91
84971;DHT22;75278;51.926;4.562;2024-01-30T12:55:40;9.0;91
84971;DHT22;75278;51.926;4.562;2024-01-30T12:57:40;9.0;92
84971;DHT22;75278;51.926;4.562;2024-01-30T12:59:40;9.0;92
84971;DHT22;75278;51.926;4.562;2024-01-30T13:01:40;9.0;92
84971;DHT22;75278;51.926;4.562;2024-01-30T13:03:40;9.1;92
84971;DHT22;75278;51.926;4.562;2024-01-30T13:07:40;9.2;91
84971;DHT22;75278;51.926;4.562;2024-01-30T13:09:40;9.2;90
84971;DHT22;75278;51.926;4.562;2024-01-30T13:11:40;9.2;90
84971;DHT22;75278;51.926;4.562;2024-01-30T13:13:40;9.2;89
84971;DHT22;75278;51.926;4.562;2024-01-30T13:15:40;9.3;89
84971;DHT22;75278;51.926;4.562;2024-01-30T13:17:40;9.3;89
84971;DHT22;75278;51.926;4.562;2024-01-30T13:19:40;9.4;88
84971;DHT22;75278;51.926;4.562;2024-01-30T13:21:40;9.4;88
84971;DHT22;75278;51.926;4.562;2024-01-30T13:23:40;9.5;88
84971;DHT22;75278;51.926;4.562;2024-01-30T13:25:40;9.5;88
84971;DHT22;75278;51.926;4.562;2024-01-30T13:27:40;9.5;88
84971;DHT22;75278;51.926;4.562;2024-01-30T13:29:40;9.5;88
84971;DHT22;75278;51.926;4.562;2024-01-30T13:31:40;9.5;88